• Join FlightAware (Why Join?)
  • Login
  • US Flag 
01:56AM EDT


 

Airport Tracker/Info


-or-


 

Live Flight TrackerFlight Track Log ✈ EJA930 ✈ 03-Jul-2013 ✈ KBOS - KTEB

Flight Track Log - Related Links

Times and Time Zones

All times are in EDT time to prevent confusion due to time zone crossing. See the EJA930 flight status page for this flight to view local times or setup timezone preferences in your user account.

Time Position Orientation Groundspeed Altitude Reporting Facility
EDT Latitude Longitude Course Direction KTS MPH feet Rate Location/Type
03:39PM 42.3667 -71.0167 278° West 156 180 900  Level KA90
03:40PM 42.3167 -70.9667 144° Southeast 229 264 4,200 2,940 Climbing KA90
03:42PM 42.3214 -70.7750 88° East 312 359 9,600 3,000 Climbing Boston Center
03:43PM 42.2603 -70.7206 147° Southeast 238 274 12,600 2,040 Climbing Boston Center
03:44PM 42.1900 -70.7700 208° Southwest 193 222 13,700 660 Climbing Boston Center
03:45PM 42.1876 -71.0093 278° West  Level FlightAware Approximate
03:45PM 42.1669 -70.8939 256° West 241 277 14,000  Level Boston Center
03:46PM 42.1667 -71.0508 270° West 341 392 14,000  Level Boston Center
03:47PM 42.1767 -71.1822 276° West 385 443 14,000  Level Boston Center
03:48PM 42.1889 -71.3472 276° West 404 465 14,000  Level Boston Center
03:49PM 42.2028 -71.5236 276° West 403 464 14,000  Level Boston Center
03:50PM 42.2103 -71.6664 274° West 403 464 14,000  Level Boston Center
03:51PM 42.2153 -71.8150 273° West 398 458 14,000  Level Boston Center
03:52PM 42.2075 -71.9244 265° West 403 464 14,000  Level Boston Center
03:53PM 42.1956 -72.1122 265° West 426 490 14,000  Level Boston Center
03:54PM 42.1878 -72.2831 267° West 426 490 14,000  Level Boston Center
03:55PM 42.1794 -72.4261 266° West 426 490 14,000  Level Boston Center
03:56PM 42.1689 -72.5942 265° West 421 484 14,000  Level Boston Center
03:57PM 42.1603 -72.7481 266° West 421 484 14,000  Level Boston Center
03:59PM 42.1388 -72.9238 261° West  Level FlightAware Approximate
04:00PM 42.1311 -73.1903 266° West 421 484 14,000  Level Boston Center
04:01PM 42.1217 -73.3303 265° West 421 484 14,000  Level Boston Center
04:02PM 42.1078 -73.5008 264° West 421 484 14,000 -60 Level Boston Center
04:03PM 42.0958 -73.6517 264° West 421 484 13,900  Descending Boston Center
04:04PM 42.0856 -73.8192 265° West 416 479 14,000  Climbing Boston Center
04:05PM 42.0758 -73.9392 264° West 416 479 14,000 -540 Level Boston Center
04:06PM 42.0562 -73.9002 266° West  Level FlightAware Approximate
04:06PM 42.0628 -74.1181 264° West 409 471 13,000  Level Boston Center
04:07PM 42.0481 -74.2631 262° West 403 464 11,700 -1,500 Descending Boston Center
04:08PM 41.9775 -74.3669 228° Southwest 369 425 10,000 -1,680 Descending Boston Center
04:09PM 41.9122 -74.4181 210° Southwest 325 374 8,400 -1,500 Descending Boston Center
04:10PM 41.8403 -74.4686 208° Southwest 286 329 7,100 -660 Descending Boston Center
04:11PM 41.7811 -74.5114 208° Southwest 271 312 7,100 -60 Level Boston Center
04:12PM 41.7036 -74.5367 194° South 259 298 7,000 -300 Descending Boston Center
04:13PM 41.6408 -74.5486 188° South 259 298 6,500 -480 Descending Boston Center
04:14PM 41.5508 -74.5650 188° South 259 298 6,000 -240 Descending Boston Center
04:15PM 41.4797 -74.5764 187° South 259 298 6,100  Climbing Boston Center
04:16PM 41.4086 -74.5933 190° South 259 298 6,100  Level Boston Center
04:18PM 41.3333 -74.6167 193° South 258 297 6,100  Level New York TRACON
04:19PM 41.2667 -74.6500 201° Southwest 262 302 6,100  Level New York TRACON
04:20PM 41.2000 -74.6667 191° South 267 307 6,100 -360 Level New York TRACON
04:21PM 41.1333 -74.6833 191° South 248 285 5,400 -1,020 Descending New York TRACON
04:22PM 41.1000 -74.6000 118° Southeast 268 308 4,100 -660 Descending New York TRACON
04:23PM 41.0833 -74.5000 102° East 287 330 4,100 -540 Level New York TRACON
04:24PM 41.0667 -74.4000 102° East 278 320 3,100 -540 Descending New York TRACON
04:25PM 41.0667 -74.3000 90° East 271 312 3,100  Level New York TRACON
04:26PM 41.0500 -74.2000 102° East 277 319 3,100 -540 Level New York TRACON
04:27PM 41.0333 -74.1000 102° East 267 307 2,100 -540 Descending New York TRACON
04:28PM 41.0000 -74.0667 143° Southeast 178 205 2,100 -180 Level New York TRACON
04:29PM 40.9500 -74.0500 166° South 189 217 1,800 -600 Descending New York TRACON
04:30PM 40.9000 -74.0500 180° South 145 167 1,000 -840 Descending New York TRACON
04:32PM 40.8500 -74.0500 175° South  Level FlightAware Approximate
04:39PM 40.8501 -74.0608 175° South  Level Estimated